Latest Weather Observations for Point Fawcett

IDD60801

Issued at 1:35 pm CST Thursday 17 April 2014 (issued every 30 minutes, with the page automatically refreshed every 10 minutes)

About weather observations | Map of weather stations | Latest weather observations for NT | Other Formats
Station Details ID: 200731 Name: POINT FAWCETT Lat: -11.76 Lon: 130.03 Height: 6.5 m
Data from the previous 72 hours. | See also: Recent months at Point Fawcett
Date/Time
CST
Temp
°C
App
Temp
°C
Dew
Point
Rel
Hum
%
Delta-T
°C
Wind Press
QNH
hPa
Press
MSL
hPa
Rain
since 9 am
mm
Dir
 
Spd
km/h
Gust
km/h
Spd
kts
Gust
kts
17/01:30pm 32.4 36.8 24.4 62 5.6 NW 9 13 5 7 1009.2 - -
17/01:00pm 32.3 36.6 24.3 62 5.6 NW 9 11 5 6 1009.3 - -
17/12:30pm 32.2 36.3 24.0 62 5.7 NNW 9 11 5 6 1009.5 - -
17/12:00pm 32.0 36.6 24.8 65 5.1 NW 9 11 5 6 1010.2 1010.1 -
17/11:30am 31.6 36.0 24.5 66 5.0 NW 9 11 5 6 1010.8 - -
17/11:00am 31.2 35.4 24.1 66 4.9 WNW 9 11 5 6 1011.0 - -
17/10:30am 30.9 35.3 23.8 66 4.9 W 7 9 4 5 1011.1 - -
17/10:00am 30.3 34.8 23.7 68 4.6 WSW 6 9 3 5 1011.2 - -
17/09:30am 29.5 34.0 23.9 72 3.9 SW 7 11 4 6 1011.0 - -
17/09:00am 28.6 34.1 25.6 84 2.1 WSW 7 9 4 5 1010.8 1010.7 -
17/08:30am 27.7 34.3 27.0 96 0.5 S 6 7 3 4 1010.6 - -
17/08:00am 25.6 30.9 24.9 96 0.5 S 6 7 3 4 1010.6 - -
17/07:30am 23.7 27.6 23.0 96 0.5 S 7 9 4 5 1010.3 - -
17/07:00am 23.4 27.4 22.7 96 0.5 SSW 6 7 3 4 1010.0 - -
17/06:30am 23.3 27.5 22.5 95 0.5 SW 4 7 2 4 1009.8 - -
17/06:00am 23.7 27.2 22.9 95 0.5 WNW 9 13 5 7 1009.5 1009.4 -
17/05:30am 24.1 27.4 23.2 95 0.6 WNW 11 13 6 7 1009.4 - -
17/05:00am 24.0 27.7 23.3 96 0.5 NNW 9 13 5 7 1009.1 - -
17/04:30am 23.1 28.0 22.3 95 0.5 CALM 0 0 0 0 1008.9 - -
17/04:00am 23.1 28.0 22.3 95 0.5 CALM 0 0 0 0 1009.0 - -
17/03:30am 23.1 27.2 22.3 95 0.5 SE 4 6 2 3 1009.0 - -
17/03:00am 23.2 27.4 22.4 95 0.5 SE 4 6 2 3 1009.0 1008.9 -
17/02:30am 23.2 27.0 22.4 95 0.5 SE 6 6 3 3 1009.3 - -
17/02:00am 23.2 27.0 22.4 95 0.5 SE 6 7 3 4 1009.3 - -
17/01:30am 23.3 27.2 22.5 95 0.5 SE 6 7 3 4 1009.7 - -
17/01:00am 23.4 27.0 22.4 94 0.7 SE 7 9 4 5 1010.1 - -
17/12:30am 23.5 27.4 22.5 94 0.7 NE 6 7 3 4 1010.1 - -
17/12:00am 23.7 27.7 22.7 94 0.7 ESE 6 7 3 4 1010.3 1010.2 -
 
Date/Time
CST
Temp
°C
App
Temp
°C
Dew
Point
Rel
Hum
%
Delta-T
°C
Wind Press
QNH
hPa
Press
MSL
hPa
Rain
since 9 am
mm
Dir
 
Spd
km/h
Gust
km/h
Spd
kts
Gust
kts
16/11:30pm 23.8 27.6 22.8 94 0.7 SE 7 9 4 5 1010.4 - -
16/11:00pm 23.9 27.7 22.7 93 0.8 ESE 7 7 4 4 1010.5 - -
16/10:30pm 24.0 27.8 22.8 93 0.8 SE 7 9 4 5 1010.6 - -
16/10:00pm 24.1 27.9 22.7 92 0.9 ESE 7 7 4 4 1010.6 - -
16/09:30pm 24.3 28.1 22.7 91 1.1 SE 7 7 4 4 1010.3 - -
16/09:00pm 24.5 28.5 22.7 90 1.2 E 6 7 3 4 1009.9 1009.8 -
16/08:30pm 24.8 28.6 22.7 88 1.4 E 7 9 4 5 1009.5 - -
16/08:00pm 25.5 29.4 22.6 84 2.0 E 6 7 3 4 1009.1 - -
16/07:30pm 26.7 30.2 22.8 79 2.6 ENE 9 11 5 6 1009.0 - -
16/07:00pm 27.3 30.2 22.5 75 3.2 NE 11 17 6 9 1008.7 - -
16/06:30pm 28.4 30.9 23.1 73 3.6 NE 15 20 8 11 1008.6 - -
16/06:00pm 30.2 33.6 23.4 67 4.7 NNE 11 24 6 13 1008.4 1008.3 -
16/05:30pm 31.4 33.7 21.3 55 6.8 SE 11 17 6 9 1008.0 - -
16/05:00pm 32.3 35.5 22.4 56 6.8 SE 9 17 5 9 1007.6 - -
16/04:30pm 32.2 35.3 22.9 58 6.4 SSE 11 17 6 9 1007.4 - -
16/04:00pm 32.3 35.2 22.4 56 6.8 SSE 11 20 6 11 1007.4 - -
16/03:30pm 32.7 35.2 22.5 55 7.0 ESE 13 19 7 10 1007.3 - -
16/03:00pm 32.8 35.2 21.6 51 7.6 SE 11 20 6 11 1007.7 1007.6 -
16/02:30pm 33.0 35.7 22.1 52 7.4 ESE 11 20 6 11 1007.9 - -
16/02:00pm 32.4 33.6 20.6 49 7.9 E 15 20 8 11 1008.2 - -
16/01:30pm 32.6 35.1 22.4 55 7.0 E 13 20 7 11 1008.6 - -
16/01:00pm 32.4 34.4 21.6 53 7.3 E 13 20 7 11 1009.0 - -
16/12:30pm 31.9 34.5 22.6 58 6.4 SE 13 20 7 11 1009.6 - -
16/12:00pm 32.0 35.4 23.3 60 6.0 SSE 11 20 6 11 1010.2 1010.1 -
16/11:30am 31.5 34.4 23.1 61 5.8 SE 13 20 7 11 1010.6 - -
16/11:00am 31.4 33.9 22.4 59 6.1 SSE 13 22 7 12 1010.8 - -
16/10:30am 31.3 34.2 23.1 61 5.6 SE 13 20 7 11 1011.2 - -
16/10:00am 31.3 35.0 23.9 64 5.1 ESE 11 19 6 10 1011.2 - -
16/09:30am 30.2 34.5 23.6 67 4.6 ESE 7 13 4 7 1011.2 - -
16/09:00am 29.1 34.4 25.3 80 2.7 ESE 7 11 4 6 1011.0 1010.9 -
16/08:30am 27.7 34.2 26.8 95 0.6 ESE 6 11 3 6 1010.8 - -
16/08:00am 25.1 29.9 24.4 96 0.5 ESE 7 9 4 5 1010.6 - -
16/07:30am 24.1 28.3 23.4 96 0.5 ESE 7 7 4 4 1010.4 - -
16/07:00am 24.0 28.1 23.3 96 0.5 ESE 7 9 4 5 1010.2 - -
16/06:30am 24.6 29.1 23.9 96 0.5 ESE 7 9 4 5 1010.1 - -
16/06:00am 24.6 29.1 23.9 96 0.5 ESE 7 9 4 5 1009.7 1009.6 -
16/05:30am 24.3 28.6 23.6 96 0.5 ESE 7 9 4 5 1009.5 - -
16/05:00am 24.1 28.3 23.4 96 0.5 ESE 7 9 4 5 1009.4 - -
16/04:30am 23.6 27.4 22.8 95 0.5 ESE 7 7 4 4 1009.5 - -
16/04:00am 23.7 27.6 22.9 95 0.5 SE 7 9 4 5 1009.5 - -
16/03:30am 23.8 27.7 22.9 95 0.6 SE 7 9 4 5 1009.7 - -
16/03:00am 23.8 27.7 22.9 95 0.6 SE 7 7 4 4 1009.7 1009.6 -
16/02:30am 23.9 27.8 23.0 95 0.6 SSE 7 9 4 5 1009.8 - -
16/02:00am 24.2 27.9 23.2 94 0.7 S 9 11 5 6 1010.0 - -
16/01:30am 24.3 28.4 23.3 94 0.7 E 7 7 4 4 1009.9 - -
16/01:00am 24.6 28.9 23.6 94 0.7 ENE 7 9 4 5 1010.3 - -
16/12:30am 24.7 28.9 23.5 93 0.8 E 7 9 4 5 1010.8 - -
16/12:00am 24.9 28.9 23.7 93 0.8 E 9 11 5 6 1010.7 1010.6 -
 
Date/Time
CST
Temp
°C
App
Temp
°C
Dew
Point
Rel
Hum
%
Delta-T
°C
Wind Press
QNH
hPa
Press
MSL
hPa
Rain
since 9 am
mm
Dir
 
Spd
km/h
Gust
km/h
Spd
kts
Gust
kts
15/11:30pm 25.2 29.6 23.8 92 1.0 E 7 9 4 5 1010.6 - -
15/11:00pm 25.6 30.1 24.0 91 1.1 ENE 7 9 4 5 1010.5 - -
15/10:30pm 26.0 30.8 24.4 91 1.1 ENE 7 11 4 6 1010.6 - -
15/10:00pm 26.0 30.6 24.2 90 1.2 ENE 7 11 4 6 1010.7 - -
15/09:30pm 26.0 30.1 24.0 89 1.4 ENE 9 11 5 6 1010.6 - -
15/09:00pm 26.3 30.9 24.2 88 1.4 ENE 7 9 4 5 1010.5 1010.4 -
15/08:30pm 26.1 30.3 24.1 89 1.4 ENE 9 17 5 9 1010.3 - -
15/08:00pm 25.8 30.1 23.7 88 1.4 ENE 7 9 4 5 1009.9 - -
15/07:30pm 25.9 30.2 23.6 87 1.6 E 7 9 4 5 1009.3 - -
15/07:00pm 26.6 30.8 23.1 81 2.4 E 6 7 3 4 1009.0 - -
15/06:30pm 28.3 32.5 23.2 74 3.5 ESE 6 7 3 4 1008.7 - -
15/06:00pm 29.0 32.8 22.7 69 4.3 ESE 7 11 4 6 1008.5 1008.4 -
15/05:30pm 29.5 33.2 22.5 66 4.8 ESE 7 9 4 5 1008.5 - -
15/05:00pm 29.7 33.3 22.4 65 5.0 ESE 7 15 4 8 1008.1 - -
15/04:30pm 30.0 32.2 21.9 62 5.5 ESE 13 20 7 11 1008.0 - -
15/04:00pm 30.6 34.7 23.3 65 5.0 E 7 17 4 9 1007.9 - -
15/03:30pm 30.4 32.9 23.1 65 5.0 E 15 24 8 13 1008.0 - -
15/03:00pm 31.7 35.0 23.8 63 5.5 E 13 22 7 12 1008.1 1008.0 -
15/02:30pm 30.7 33.2 24.4 69 4.4 E 19 28 10 15 1008.3 - -
15/02:00pm 30.9 34.2 23.8 66 4.9 SE 13 26 7 14 1008.4 - -
15/01:30pm 32.0 35.9 24.8 65 5.1 ESE 13 24 7 13 1008.7 - -
15/01:00pm 32.1 35.8 25.2 67 4.9 SE 15 26 8 14 1009.2 - -
15/12:30pm 32.1 35.3 24.9 65 5.1 ESE 17 32 9 17 1009.7 - -
15/12:00pm 31.1 34.2 24.2 66 4.8 SE 15 22 8 12 1010.2 1010.1 -
15/11:30am 31.5 35.2 24.6 67 4.8 SE 13 20 7 11 1010.6 - -
15/11:00am 31.6 34.5 24.5 66 5.0 ESE 17 26 9 14 1010.9 - -
15/10:30am 31.0 33.9 25.1 71 4.2 SE 19 24 10 13 1011.1 - -
15/10:00am 30.5 34.4 24.9 72 3.9 E 13 22 7 12 1011.3 - -
15/09:30am 30.2 35.0 25.7 77 3.2 E 11 17 6 9 1010.9 - -
15/09:00am 27.9 33.6 26.5 92 1.0 E 9 15 5 8 1010.6 1010.5 -
15/08:30am 26.0 31.2 25.1 95 0.6 ESE 7 13 4 7 1010.4 - -
15/08:00am 25.4 30.2 24.5 95 0.6 ESE 7 9 4 5 1010.3 - -
15/07:30am 24.7 29.1 23.8 95 0.6 ESE 7 11 4 6 1010.2 - -
15/07:00am 24.3 27.7 23.4 95 0.6 SE 11 15 6 8 1010.1 - -
15/06:30am 24.2 27.9 23.3 95 0.6 SE 9 11 5 6 1009.8 - -
15/06:00am 23.9 28.0 23.2 96 0.5 ESE 7 15 4 8 1009.6 1009.5 -
15/05:30am 23.7 27.6 23.0 96 0.5 E 7 7 4 4 1009.2 - -
15/05:00am 23.8 27.8 23.1 96 0.5 E 7 9 4 5 1009.1 - -
15/04:30am 23.8 27.7 22.9 95 0.6 ESE 7 7 4 4 1008.9 - -
15/04:00am 24.0 28.0 23.1 95 0.6 SE 7 9 4 5 1008.9 - -
15/03:30am 24.3 28.5 23.4 95 0.6 SE 7 11 4 6 1008.9 - -
15/03:00am 24.4 28.6 23.5 95 0.6 SE 7 9 4 5 1009.1 1009.0 -
15/02:30am 24.3 28.5 23.4 95 0.6 SE 7 9 4 5 1009.4 - -
15/02:00am 24.2 28.3 23.2 94 0.7 ENE 7 9 4 5 1009.6 - -
15/01:30am 24.3 28.4 23.3 94 0.7 E 7 9 4 5 1009.6 - -
15/01:00am 24.6 28.9 23.6 94 0.7 E 7 11 4 6 1009.7 - -
15/12:30am 24.7 28.7 23.7 94 0.7 E 9 11 5 6 1009.9 - -
15/12:00am 25.0 29.1 24.0 94 0.7 ESE 9 13 5 7 1009.9 1009.8 -
 
Date/Time
CST
Temp
°C
App
Temp
°C
Dew
Point
Rel
Hum
%
Delta-T
°C
Wind Press
QNH
hPa
Press
MSL
hPa
Rain
since 9 am
mm
Dir
 
Spd
km/h
Gust
km/h
Spd
kts
Gust
kts
14/11:30pm 25.1 29.3 24.1 94 0.7 ESE 9 13 5 7 1010.1 - -
14/11:00pm 25.3 29.6 24.3 94 0.7 E 9 15 5 8 1010.4 - -
14/10:30pm 25.4 29.4 24.4 94 0.7 E 11 13 6 7 1010.7 - -
14/10:00pm 25.4 29.8 24.4 94 0.7 E 9 13 5 7 1010.6 - -
14/09:30pm 25.5 29.9 24.5 94 0.7 E 9 13 5 7 1010.2 - -
14/09:00pm 25.4 30.2 24.4 94 0.7 ESE 7 11 4 6 1009.9 1009.8 -
14/08:30pm 25.6 30.0 24.4 93 0.8 E 9 11 5 6 1009.9 - -
14/08:00pm 25.4 30.0 24.2 93 0.8 E 7 11 4 6 1009.3 - -
14/07:30pm 25.4 29.8 24.4 94 0.7 E 9 13 5 7 1008.9 - -
14/07:00pm 25.2 29.7 24.0 93 0.8 E 7 7 4 4 1008.5 - -
14/06:30pm 25.7 30.1 24.5 93 0.8 E 9 13 5 7 1008.4 - -
14/06:00pm 25.5 29.4 24.3 93 0.8 ENE 11 13 6 7 1008.2 1008.1 -
14/05:30pm 25.2 29.0 24.0 93 0.8 NE 11 19 6 10 1008.3 - -
14/05:00pm 25.4 28.5 24.2 93 0.8 NNE 15 22 8 12 1007.9 - -
14/04:30pm 24.7 28.3 23.1 91 1.1 E 9 13 5 7 1007.6 - -
14/04:00pm 25.9 28.6 22.8 83 2.1 NW 13 35 7 19 1007.4 - -
14/03:30pm 30.0 36.6 25.3 76 3.3 CALM 0 4 0 2 1007.0 - -
14/03:00pm 30.2 34.8 24.8 73 3.8 SSW 9 13 5 7 1007.0 1006.9 -
14/02:30pm 30.8 35.4 24.2 68 4.6 S 7 9 4 5 1007.4 - -
14/02:00pm 31.7 35.8 24.0 63 5.4 S 9 13 5 7 1007.8 - -

Other Formats:

Comma delimited format used in spreadsheet applications
http://www.bom.gov.au/fwo/IDD60801/IDD60801.94122.axf

JavaScript Object Notation format (JSON) in row-major order
http://www.bom.gov.au/fwo/IDD60801/IDD60801.94122.json